Time;durP1;ratioP1;P1;durP2;ratioP2;P2;SDS_P1;SDS_P2;PMS_P1;PMS_P2;Temp;Humidity;BMP_temperature;BMP_pressure;BME280_temperature;BME280_humidity;BME280_pressure;Samples;Min_cycle;Max_cycle;Signal;HPM_P1;HPM_P2
2021/09/21 00:01:19;;;;;;;30.10;14.45;;;;;;;8.71;93.51;91335.19;4980088;28;20021;-90
2021/09/21 00:03:44;;;;;;;26.80;12.52;;;;;;;8.79;93.63;91327.38;4980044;28;20041;-90
2021/09/21 00:06:09;;;;;;;29.15;14.20;;;;;;;8.80;93.37;91328.91;4980226;28;20018;-90
2021/09/21 00:08:35;;;;;;;29.70;14.80;;;;;;;8.86;93.34;91332.88;4996172;28;20473;-88
2021/09/21 00:11:01;;;;;;;38.75;18.50;;;;;;;8.89;91.68;91326.31;5013825;28;20614;-89
2021/09/21 00:13:27;;;;;;;31.20;14.88;;;;;;;9.00;91.83;91324.16;4979964;28;20038;-89
2021/09/21 00:15:53;;;;;;;25.48;13.50;;;;;;;8.87;91.99;91325.88;4979970;28;20089;-89
2021/09/21 00:18:18;;;;;;;35.60;16.67;;;;;;;8.84;92.17;91326.47;4995689;28;20397;-90
2021/09/21 00:20:43;;;;;;;40.58;18.95;;;;;;;8.80;91.96;91320.38;4963567;28;20068;-90
2021/09/21 00:23:09;;;;;;;34.80;16.40;;;;;;;8.83;92.35;91322.31;4980274;28;20018;-89
2021/09/21 00:25:34;;;;;;;33.17;16.77;;;;;;;8.78;92.52;91323.25;4984334;28;20049;-89
2021/09/21 00:28:00;;;;;;;35.90;17.45;;;;;;;8.86;92.39;91319.88;4995999;28;20492;-90
2021/09/21 00:30:25;;;;;;;32.85;15.68;;;;;;;8.79;92.52;91324.00;4979942;28;20042;-89
2021/09/21 00:33:01;;;;;;;31.50;13.85;;;;;;;8.80;92.14;91328.16;4963835;28;20433;-90
2021/09/21 00:35:28;;;;;;;31.98;15.05;;;;;;;8.78;91.83;91322.50;4981639;28;20025;-90
2021/09/21 00:37:53;;;;;;;30.13;15.00;;;;;;;8.72;92.62;91336.69;4995253;28;20394;-90
2021/09/21 00:40:19;;;;;;;38.38;17.17;;;;;;;8.56;92.01;91329.38;4995261;28;20017;-90
2021/09/21 00:42:45;;;;;;;29.08;14.60;;;;;;;8.59;92.38;91335.78;4995929;28;20448;-90
2021/09/21 00:45:16;;;;;;;27.60;13.77;;;;;;;8.48;92.55;91334.53;4995569;28;20482;-90
2021/09/21 00:47:41;;;;;;;31.67;14.95;;;;;;;8.49;92.90;91342.03;4979212;28;20478;-90
2021/09/21 00:50:07;;;;;;;32.58;15.75;;;;;;;8.67;91.83;91329.06;4962931;28;20037;-89
2021/09/21 00:52:32;;;;;;;36.25;16.55;;;;;;;8.66;91.58;91340.50;4995534;28;20036;-89
2021/09/21 00:54:58;;;;;;;37.80;18.08;;;;;;;8.59;91.55;91349.53;4995266;28;20034;-89
2021/09/21 00:57:23;;;;;;;35.75;17.92;;;;;;;8.47;91.76;91338.97;5012478;28;20030;-89
2021/09/21 00:59:49;;;;;;;43.55;20.00;;;;;;;8.43;91.89;91342.50;4995204;28;20026;-89
2021/09/21 01:02:14;;;;;;;38.72;17.40;;;;;;;8.36;92.29;91338.47;4995156;28;20037;-89
2021/09/21 01:04:39;;;;;;;31.92;14.98;;;;;;;8.33;92.68;91348.69;4962772;28;20022;-89
2021/09/21 01:07:05;;;;;;;30.95;14.68;;;;;;;8.31;92.79;91340.47;4978935;28;20029;-89
2021/09/21 01:09:30;;;;;;;44.28;14.07;;;;;;;8.31;92.60;91350.84;4994857;28;20029;-89
2021/09/21 01:11:57;;;;;;;31.83;13.32;;;;;;;8.24;92.78;91351.28;4995350;28;20084;-90
2021/09/21 01:14:23;;;;;;;40.35;15.35;;;;;;;8.23;92.70;91343.78;4978980;28;20037;-89
2021/09/21 01:16:49;;;;;;;31.90;14.98;;;;;;;8.26;92.70;91348.38;4994962;28;20026;-91
2021/09/21 01:19:14;;;;;;;37.45;16.02;;;;;;;8.21;93.12;91346.69;5012229;28;20026;-89
2021/09/21 01:21:41;;;;;;;37.03;16.83;;;;;;;8.21;92.94;91340.75;4978793;28;20052;-90
2021/09/21 01:24:06;;;;;;;33.00;14.68;;;;;;;8.25;93.10;91336.47;4978767;28;20117;-89
2021/09/21 01:26:32;;;;;;;37.05;15.88;;;;;;;8.26;93.01;91338.75;4975988;28;20247;-90
2021/09/21 01:28:57;;;;;;;36.95;15.65;;;;;;;8.31;93.12;91348.25;4975374;28;20030;-90
2021/09/21 01:31:22;;;;;;;31.55;14.73;;;;;;;8.35;92.88;91343.97;5002327;28;20041;-90
2021/09/21 01:33:49;;;;;;;33.75;16.25;;;;;;;8.39;92.94;91347.53;4995051;28;20394;-90
2021/09/21 01:36:18;;;;;;;36.15;16.40;;;;;;;8.40;92.95;91340.50;4962707;28;20117;-90
2021/09/21 01:38:44;;;;;;;31.33;14.30;;;;;;;8.35;92.95;91343.97;4978751;28;20033;-89
2021/09/21 01:41:09;;;;;;;32.28;15.80;;;;;;;8.31;92.94;91346.41;4962474;28;20022;-90
2021/09/21 01:43:34;;;;;;;35.30;15.52;;;;;;;8.34;93.33;91351.00;4962634;28;20486;-88
2021/09/21 01:46:00;;;;;;;31.20;15.90;;;;;;;8.33;92.61;91354.66;4994822;28;20015;-89
2021/09/21 01:48:25;;;;;;;31.88;16.08;;;;;;;8.39;92.96;91360.50;4978072;28;20030;-90
2021/09/21 01:51:03;;;;;;;33.38;15.90;;;;;;;8.34;92.42;91360.63;4978933;28;20029;-90
2021/09/21 01:58:56;;;;;;;28.48;14.23;;;;;;;8.25;92.71;91367.63;4987219;28;20065;-89
2021/09/21 02:01:23;;;;;;;26.95;13.57;;;;;;;8.22;93.15;91363.03;4982349;28;20506;-89
2021/09/21 02:03:50;;;;;;;26.52;14.00;;;;;;;8.23;93.43;91364.56;4982255;28;20030;-90
2021/09/21 02:06:15;;;;;;;28.58;14.38;;;;;;;8.27;93.46;91365.47;4998485;28;20028;-90
2021/09/21 02:08:41;;;;;;;28.45;13.98;;;;;;;8.29;93.26;91368.56;5015362;28;20029;-88
2021/09/21 02:11:06;;;;;;;32.40;15.95;;;;;;;8.29;93.28;91368.56;5015976;28;20030;-90
2021/09/21 02:13:32;;;;;;;29.90;14.18;;;;;;;8.30;93.03;91367.47;4982223;28;20026;-90
2021/09/21 02:15:57;;;;;;;30.50;14.13;;;;;;;8.37;93.03;91366.03;4997833;28;20053;-89
2021/09/21 02:18:23;;;;;;;27.63;14.48;;;;;;;8.35;92.95;91362.16;4997969;28;20038;-89
2021/09/21 02:20:48;;;;;;;25.90;13.77;;;;;;;8.40;92.93;91362.03;5015534;28;20076;-90
2021/09/21 02:23:14;;;;;;;26.02;13.63;;;;;;;8.41;92.95;91355.78;5003264;28;20021;-90
2021/09/21 02:25:39;;;;;;;30.02;14.68;;;;;;;8.42;93.04;91351.34;5017628;28;20037;-89
2021/09/21 02:28:05;;;;;;;28.10;13.32;;;;;;;8.41;92.66;91329.03;5017740;28;20025;-89
2021/09/21 02:30:30;;;;;;;28.75;12.73;;;;;;;8.34;92.66;91329.47;5016495;28;20389;-90
2021/09/21 02:32:55;;;;;;;24.95;13.38;;;;;;;8.37;91.88;91329.66;5016126;28;20110;-90
2021/09/21 02:35:21;;;;;;;28.27;14.65;;;;;;;8.22;92.41;91331.88;4998428;28;20096;-89
2021/09/21 02:37:46;;;;;;;29.42;14.18;;;;;;;8.41;91.46;91336.81;4997827;28;20033;-90
2021/09/21 02:40:12;;;;;;;29.80;14.88;;;;;;;8.41;90.73;91335.00;4965314;28;20032;-90
2021/09/21 02:42:39;;;;;;;32.80;14.00;;;;;;;8.10;91.87;91335.84;4998289;28;20018;-90
2021/09/21 02:45:04;;;;;;;32.80;15.35;;;;;;;7.94;92.56;91334.72;4981047;28;20513;-89
2021/09/21 02:47:30;;;;;;;32.10;15.70;;;;;;;7.98;91.57;91338.22;4995756;28;20053;-90
2021/09/21 02:49:55;;;;;;;34.33;16.08;;;;;;;7.96;91.95;91344.81;5030260;23;20422;-87
2021/09/21 02:52:21;;;;;;;35.13;16.05;;;;;;;7.75;91.90;91350.53;4961852;28;20022;-87
2021/09/21 02:54:46;;;;;;;30.13;14.68;;;;;;;7.56;91.63;91349.97;4945893;28;20063;-88
2021/09/21 02:57:12;;;;;;;31.60;15.25;;;;;;;7.52;91.80;91356.81;4977179;28;20034;-87
2021/09/21 02:59:37;;;;;;;29.50;15.48;;;;;;;7.43;91.50;91349.78;4961241;28;20474;-88
2021/09/21 03:02:02;;;;;;;31.05;15.55;;;;;;;7.33;91.59;91342.25;4961546;28;20026;-88
2021/09/21 03:04:32;;;;;;;28.23;13.80;;;;;;;7.32;91.86;91342.56;4945635;28;20042;-87
2021/09/21 03:07:12;;;;;;;26.02;13.40;;;;;;;7.27;91.67;91343.44;4946684;28;20574;-87
2021/09/21 03:17:28;;;;;;;27.97;13.43;;;;;;;7.06;90.19;91350.91;4960551;28;20158;-87
2021/09/21 03:19:55;;;;;;;29.65;14.65;;;;;;;6.84;91.03;91354.28;4974011;28;20272;-88
2021/09/21 03:22:22;;;;;;;25.17;13.23;;;;;;;6.83;91.67;91368.31;4957954;28;20538;-87
2021/09/21 03:24:48;;;;;;;25.30;12.75;;;;;;;6.78;91.45;91363.22;4957733;28;20089;-87
2021/09/21 03:27:13;;;;;;;28.10;12.70;;;;;;;6.70;91.38;91359.50;4961103;28;20026;-86
2021/09/21 03:29:38;;;;;;;22.98;12.43;;;;;;;6.68;90.89;91360.88;4977174;28;20042;-87
2021/09/21 03:32:04;;;;;;;18.63;10.40;;;;;;;6.63;90.43;91355.78;4978390;28;20045;-88
2021/09/21 03:34:32;;;;;;;22.30;11.57;;;;;;;6.56;90.70;91361.38;4980735;28;20041;-87
2021/09/21 03:36:57;;;;;;;24.70;11.60;;;;;;;6.58;91.12;91361.84;4996493;28;20172;-89
2021/09/21 03:39:23;;;;;;;22.33;10.40;;;;;;;6.48;90.92;91359.47;4996433;28;20483;-87
2021/09/21 03:41:48;;;;;;;18.95;9.60;;;;;;;6.42;90.43;91366.56;4980184;28;20638;-88
2021/09/21 03:44:13;;;;;;;24.48;9.90;;;;;;;6.57;90.03;91365.50;4980609;28;20022;-89
2021/09/21 03:46:39;;;;;;;16.05;8.15;;;;;;;6.42;91.50;91374.34;4961704;28;20434;-90
2021/09/21 03:49:05;;;;;;;17.33;8.82;;;;;;;6.44;91.73;91374.84;4977135;28;20105;-89
2021/09/21 03:51:31;;;;;;;32.20;9.80;;;;;;;6.43;93.05;91375.91;4977312;28;20022;-88
2021/09/21 03:53:56;;;;;;;27.80;10.07;;;;;;;6.42;91.12;91383.94;4961097;28;20189;-89
2021/09/21 03:56:22;;;;;;;11.77;6.75;;;;;;;6.34;91.01;91382.81;4961138;28;20033;-89
2021/09/21 03:58:47;;;;;;;14.50;7.40;;;;;;;6.29;91.17;91389.91;4976440;28;20399;-89
2021/09/21 04:01:13;;;;;;;15.02;6.93;;;;;;;6.26;91.47;91380.91;4944587;28;20023;-89
2021/09/21 04:03:38;;;;;;;42.83;9.38;;;;;;;6.26;92.05;91385.31;4944732;28;20619;-89
2021/09/21 04:06:04;;;;;;;27.42;9.88;;;;;;;6.18;93.13;91377.19;4983097;28;20018;-89
2021/09/21 04:08:29;;;;;;;17.05;9.48;;;;;;;6.23;92.89;91381.47;4960239;28;20041;-88
2021/09/21 04:10:55;;;;;;;20.95;9.48;;;;;;;6.19;92.32;91376.13;4976476;28;20549;-89
2021/09/21 04:13:20;;;;;;;12.88;7.35;;;;;;;6.18;91.24;91374.59;4994094;28;20026;-89
2021/09/21 04:15:46;;;;;;;14.07;8.00;;;;;;;6.17;90.73;91378.22;4976379;28;20026;-89
2021/09/21 04:18:11;;;;;;;17.80;7.82;;;;;;;6.08;91.13;91376.59;4960113;28;20470;-89
2021/09/21 04:20:37;;;;;;;11.73;7.05;;;;;;;6.07;90.62;91377.66;4959743;28;20030;-89
2021/09/21 04:23:02;;;;;;;10.73;6.43;;;;;;;6.05;90.24;91384.94;4960298;28;20037;-89
2021/09/21 04:25:30;;;;;;;8.98;5.85;;;;;;;5.96;91.33;91392.59;4944429;28;20026;-89
2021/09/21 04:27:56;;;;;;;10.13;5.38;;;;;;;5.86;91.07;91379.81;4960212;28;20430;-89
2021/09/21 04:30:22;;;;;;;9.05;5.75;;;;;;;5.90;91.08;91394.50;4993136;28;20029;-89
2021/09/21 04:32:50;;;;;;;13.25;6.65;;;;;;;5.85;90.89;91389.41;4976420;28;20065;-89
2021/09/21 04:35:16;;;;;;;14.10;7.20;;;;;;;5.83;91.45;91388.16;4944541;28;20030;-89
2021/09/21 04:37:42;;;;;;;18.05;7.13;;;;;;;5.83;91.87;91388.16;4975863;28;20038;-89
2021/09/21 04:40:08;;;;;;;21.35;8.13;;;;;;;5.95;92.24;91391.06;4959987;28;20030;-89
2021/09/21 04:42:33;;;;;;;62.63;9.30;;;;;;;6.07;92.49;91391.34;4943806;28;20128;-90
2021/09/21 04:44:59;;;;;;;20.75;8.02;;;;;;;5.99;93.07;91386.84;4960209;28;20546;-89
2021/09/21 04:47:24;;;;;;;49.70;8.25;;;;;;;5.96;93.25;91387.44;4960398;28;20027;-89
2021/09/21 04:49:50;;;;;;;38.92;8.07;;;;;;;5.91;93.48;91390.09;4960393;28;20406;-89
2021/09/21 04:52:15;;;;;;;44.15;7.82;;;;;;;5.96;93.18;91397.78;4960970;28;20026;-89
2021/09/21 04:54:41;;;;;;;51.17;8.18;;;;;;;5.84;93.26;91390.47;4981495;28;20026;-89
2021/09/21 04:57:07;;;;;;;61.80;10.23;;;;;;;5.85;93.76;91396.41;4947763;28;20026;-90
2021/09/21 04:59:32;;;;;;;122.68;9.57;;;;;;;5.77;94.94;91394.50;4943751;28;20057;-90
2021/09/21 05:01:58;;;;;;;68.55;10.00;;;;;;;5.74;94.90;91401.00;4943346;28;20029;-89
2021/09/21 05:04:23;;;;;;;71.20;9.95;;;;;;;5.77;94.63;91397.84;4959719;28;20033;-89
2021/09/21 05:06:49;;;;;;;28.67;9.07;;;;;;;5.74;95.04;91398.41;4943211;28;20441;-89
2021/09/21 05:09:15;;;;;;;64.18;9.70;;;;;;;5.80;94.92;91412.03;4959415;28;20040;-89
2021/09/21 05:11:41;;;;;;;19.67;7.65;;;;;;;5.90;93.42;91404.84;4959995;28;20105;-89
2021/09/21 05:14:07;;;;;;;30.08;7.97;;;;;;;5.93;92.69;91411.28;4959339;28;20122;-89
2021/09/21 05:16:33;;;;;;;19.23;8.25;;;;;;;5.88;93.35;91413.94;4943397;28;20077;-89
2021/09/21 05:18:59;;;;;;;19.38;8.25;;;;;;;5.98;93.69;91417.13;4959683;28;20030;-89
2021/09/21 05:21:25;;;;;;;41.03;9.48;;;;;;;5.91;94.23;91423.72;4957967;28;20026;-89
2021/09/21 05:23:50;;;;;;;91.85;9.77;;;;;;;5.94;94.17;91425.78;4959154;28;20037;-89
2021/09/21 05:26:17;;;;;;;107.20;10.77;;;;;;;5.93;94.16;91424.22;4942749;28;20019;-89
2021/09/21 05:28:43;;;;;;;51.08;9.52;;;;;;;6.07;93.61;91434.56;4959467;28;20085;-89
2021/09/21 05:31:08;;;;;;;89.25;9.93;;;;;;;6.01;93.70;91435.72;4975395;28;20038;-89
2021/09/21 05:33:34;;;;;;;13.18;7.82;;;;;;;6.03;93.76;91444.72;4962472;28;20623;-89
2021/09/21 05:35:59;;;;;;;13.35;8.02;;;;;;;6.01;93.72;91439.09;4978906;28;20026;-89
2021/09/21 05:38:25;;;;;;;13.10;8.30;;;;;;;6.08;94.03;91446.44;4978436;28;20441;-90
2021/09/21 05:40:50;;;;;;;16.60;8.30;;;;;;;6.15;93.95;91447.63;4962949;28;20026;-89
2021/09/21 05:43:16;;;;;;;13.05;7.80;;;;;;;6.22;93.57;91458.38;4946942;28;20029;-89
2021/09/21 05:45:41;;;;;;;13.02;7.60;;;;;;;6.30;93.23;91462.09;4976744;28;20086;-89
2021/09/21 05:48:06;;;;;;;15.68;7.05;;;;;;;6.35;93.15;91469.75;4975887;28;20023;-89
2021/09/21 05:50:32;;;;;;;13.25;7.68;;;;;;;6.30;93.37;91467.28;4960197;28;20026;-89
2021/09/21 05:52:57;;;;;;;14.43;7.45;;;;;;;6.51;92.45;91478.00;4959525;28;20040;-90
2021/09/21 05:55:23;;;;;;;17.25;8.00;;;;;;;6.50;92.34;91480.88;4944090;28;20077;-90
2021/09/21 05:57:48;;;;;;;11.77;7.00;;;;;;;6.46;92.41;91493.63;4942894;28;20030;-89
2021/09/21 06:00:16;;;;;;;10.68;6.15;;;;;;;6.57;91.90;91484.63;4956727;28;20022;-88
2021/09/21 06:02:41;;;;;;;11.52;6.43;;;;;;;6.63;91.59;91478.28;4962879;28;20076;-88
2021/09/21 06:05:07;;;;;;;13.18;6.60;;;;;;;6.65;91.86;91478.00;4964868;28;20232;-90
2021/09/21 06:07:34;;;;;;;13.55;7.20;;;;;;;6.85;90.53;91484.59;4964679;28;20023;-91
2021/09/21 06:09:59;;;;;;;16.65;6.70;;;;;;;6.88;89.90;91484.00;4998269;28;20438;-90
2021/09/21 06:12:25;;;;;;;12.43;7.43;;;;;;;6.69;90.99;91478.97;4975705;28;20027;-90
2021/09/21 06:14:50;;;;;;;13.65;8.05;;;;;;;6.78;91.92;91484.97;4964047;28;20030;-89
2021/09/21 06:17:16;;;;;;;16.73;8.02;;;;;;;6.78;92.22;91495.34;4979598;28;20058;-88
2021/09/21 06:19:41;;;;;;;12.27;7.60;;;;;;;6.88;92.43;91504.72;4980150;28;20030;-89
2021/09/21 06:22:07;;;;;;;14.60;8.45;;;;;;;6.90;92.97;91502.63;4980717;28;20861;-89
2021/09/21 06:24:32;;;;;;;12.90;7.57;;;;;;;7.04;92.10;91515.56;4964533;28;20034;-89
2021/09/21 06:26:58;;;;;;;12.25;7.53;;;;;;;7.00;92.38;91505.00;4978108;28;20025;-89
2021/09/21 06:29:23;;;;;;;16.50;8.63;;;;;;;7.00;92.98;91509.44;4961798;28;20399;-88
2021/09/21 06:31:49;;;;;;;16.67;8.52;;;;;;;7.09;92.73;91511.03;4977855;28;20026;-89
2021/09/21 06:34:14;;;;;;;19.65;9.63;;;;;;;7.11;91.96;91519.28;4962313;28;20053;-88
2021/09/21 06:36:40;;;;;;;20.88;9.55;;;;;;;7.18;91.98;91514.47;4994703;28;20022;-89
2021/09/21 06:39:05;;;;;;;19.42;9.73;;;;;;;7.25;92.87;91523.69;4977815;28;20375;-89
2021/09/21 06:41:30;;;;;;;19.90;10.75;;;;;;;7.28;93.50;91528.25;4961738;28;20029;-89
2021/09/21 06:43:56;;;;;;;17.98;9.95;;;;;;;7.23;93.79;91526.53;4978677;28;20058;-88
2021/09/21 06:46:21;;;;;;;20.00;10.18;;;;;;;7.36;93.53;91517.97;4962206;28;20102;-89
2021/09/21 06:48:47;;;;;;;18.00;9.05;;;;;;;7.57;93.76;91522.72;4976901;28;20034;-88
2021/09/21 06:51:12;;;;;;;18.05;10.05;;;;;;;7.82;92.16;91518.75;4962292;28;20414;-89
2021/09/21 06:53:38;;;;;;;21.70;11.35;;;;;;;7.90;92.47;91523.22;4981046;28;20387;-89
2021/09/21 06:56:04;;;;;;;20.33;11.82;;;;;;;7.91;91.72;91516.97;4963506;28;20513;-90
2021/09/21 06:58:29;;;;;;;21.92;10.93;;;;;;;8.01;91.03;91528.94;4971574;28;20060;-91
2021/09/21 07:00:55;;;;;;;20.10;10.80;;;;;;;8.10;91.19;91527.19;4984545;28;20038;-91
2021/09/21 07:03:20;;;;;;;21.98;12.32;;;;;;;8.30;89.82;91525.88;4971898;28;20018;-89
2021/09/21 07:05:46;;;;;;;18.60;10.93;;;;;;;8.33;89.63;91518.25;4953188;28;20035;-89
2021/09/21 07:08:11;;;;;;;18.88;10.77;;;;;;;8.41;91.34;91521.22;4962559;28;20022;-90
2021/09/21 07:10:37;;;;;;;19.48;9.65;;;;;;;8.58;89.81;91516.88;4948022;28;20042;-90
2021/09/21 07:13:02;;;;;;;20.95;11.32;;;;;;;8.56;90.16;91526.03;4978403;28;20049;-90
2021/09/21 07:15:28;;;;;;;20.10;10.40;;;;;;;8.64;90.09;91532.34;4942889;28;20027;-90
2021/09/21 07:17:53;;;;;;;18.60;10.75;;;;;;;8.71;90.09;91535.25;4976096;28;20073;-89
2021/09/21 07:20:23;;;;;;;22.10;10.90;;;;;;;8.86;90.28;91532.25;4961422;28;20022;-90
2021/09/21 07:22:49;;;;;;;21.02;10.98;;;;;;;9.01;89.84;91533.66;4960584;28;20498;-89
2021/09/21 07:25:14;;;;;;;19.52;11.52;;;;;;;9.11;89.63;91538.56;4976759;28;20034;-90
2021/09/21 07:27:40;;;;;;;22.23;11.65;;;;;;;9.19;89.38;91537.84;4945723;28;20015;-89
2021/09/21 07:30:06;;;;;;;24.13;12.57;;;;;;;9.39;88.61;91541.66;4945023;28;20184;-89
2021/09/21 07:32:33;;;;;;;22.90;11.75;;;;;;;9.37;88.11;91541.22;4945654;28;20501;-89
2021/09/21 07:34:59;;;;;;;23.40;12.50;;;;;;;9.45;89.11;91539.69;4962121;28;20108;-90
2021/09/21 07:37:25;;;;;;;22.08;12.70;;;;;;;9.59;88.32;91548.13;4961015;28;20018;-89
2021/09/21 07:39:50;;;;;;;26.52;13.13;;;;;;;9.66;88.71;91543.22;4945090;28;20026;-90
2021/09/21 07:42:17;;;;;;;29.65;15.32;;;;;;;9.81;88.00;91547.19;4948087;28;20033;-90
2021/09/21 07:44:43;;;;;;;29.65;15.45;;;;;;;9.91;87.84;91549.50;4941666;28;20022;-90
2021/09/21 07:47:08;;;;;;;31.10;16.27;;;;;;;9.99;87.30;91560.97;4956519;28;20038;-90
2021/09/21 07:49:34;;;;;;;25.23;14.60;;;;;;;10.22;89.54;91569.38;4949748;28;20394;-89
2021/09/21 07:52:00;;;;;;;25.58;15.35;;;;;;;10.29;88.24;91569.69;4946003;28;20045;-90
2021/09/21 07:54:25;;;;;;;27.25;16.23;;;;;;;10.36;89.81;91575.19;4946181;28;20497;-90
2021/09/21 07:56:51;;;;;;;31.38;17.50;;;;;;;10.51;88.76;91566.88;4978968;28;20041;-90
2021/09/21 07:59:16;;;;;;;28.40;15.55;;;;;;;10.65;86.20;91581.56;4931404;28;20442;-90
2021/09/21 08:01:42;;;;;;;26.63;14.43;;;;;;;10.63;82.33;91568.06;4964662;28;20070;-90
2021/09/21 08:04:07;;;;;;;26.52;14.95;;;;;;;10.62;83.06;91587.41;4962750;28;20026;-90
2021/09/21 08:06:35;;;;;;;26.73;14.55;;;;;;;10.76;85.22;91583.50;4966232;28;20028;-90
2021/09/21 08:09:01;;;;;;;26.60;14.52;;;;;;;10.71;83.21;91577.72;4978826;28;20494;-89
2021/09/21 08:11:27;;;;;;;28.73;15.68;;;;;;;10.57;82.96;91585.72;4946984;28;20098;-90
2021/09/21 08:13:53;;;;;;;25.92;14.60;;;;;;;10.82;82.23;91583.34;4933305;28;20025;-90
2021/09/21 08:16:20;;;;;;;26.15;15.20;;;;;;;10.70;82.86;91576.94;4957187;28;20026;-90
2021/09/21 08:18:46;;;;;;;23.48;13.38;;;;;;;10.74;80.86;91583.06;4946264;28;20026;-89
2021/09/21 08:21:11;;;;;;;22.05;13.98;;;;;;;10.80;81.40;91601.91;4962807;28;20032;-90
2021/09/21 08:23:37;;;;;;;25.65;14.85;;;;;;;10.91;79.61;91603.09;4962985;28;20033;-91
2021/09/21 08:26:02;;;;;;;21.50;12.35;;;;;;;10.93;81.27;91603.56;4969515;28;20023;-88
2021/09/21 08:28:28;;;;;;;26.67;14.70;;;;;;;11.08;82.60;91598.88;4982398;28;20034;-89
2021/09/21 08:30:53;;;;;;;27.55;14.50;;;;;;;11.01;81.43;91597.53;4947438;28;20045;-89
2021/09/21 08:33:19;;;;;;;28.25;16.08;;;;;;;11.00;81.42;91606.44;4962398;28;20030;-89
2021/09/21 08:35:44;;;;;;;27.48;15.02;;;;;;;10.91;81.40;91603.09;4964777;28;20041;-89
2021/09/21 08:38:10;;;;;;;26.10;15.45;;;;;;;10.80;82.31;91609.72;4948513;28;20032;-89
2021/09/21 08:40:35;;;;;;;27.70;15.00;;;;;;;10.69;82.78;91611.16;4965790;28;20089;-90
2021/09/21 08:43:01;;;;;;;28.38;15.65;;;;;;;10.65;82.45;91612.84;4943839;28;20058;-90
2021/09/21 08:45:26;;;;;;;29.25;16.73;;;;;;;10.90;85.67;91616.44;4958937;28;20026;-89
2021/09/21 08:47:52;;;;;;;29.55;16.58;;;;;;;11.22;83.05;91609.88;4939018;28;20027;-89
2021/09/21 08:50:18;;;;;;;32.28;16.13;;;;;;;11.30;82.88;91618.72;4995562;23;20525;-87
2021/09/21 08:52:43;;;;;;;27.27;15.25;;;;;;;11.30;82.63;91622.09;4965406;28;20037;-87
2021/09/21 08:55:09;;;;;;;22.67;13.90;;;;;;;11.40;82.09;91621.75;4960772;28;20034;-88
2021/09/21 08:57:35;;;;;;;25.42;14.82;;;;;;;11.54;81.71;91620.75;4976871;28;20395;-87
2021/09/21 09:00:01;;;;;;;27.45;16.15;;;;;;;11.83;83.67;91625.94;4945130;28;20032;-87
2021/09/21 09:02:27;;;;;;;28.27;16.00;;;;;;;11.89;83.93;91626.56;4977591;28;20026;-87
2021/09/21 09:05:02;;;;;;;30.17;17.35;;;;;;;11.88;82.85;91632.88;4954674;28;20033;-87
2021/09/21 09:07:28;;;;;;;28.83;16.48;;;;;;;12.09;82.36;91630.28;4977553;28;20041;-85
2021/09/21 09:10:05;;;;;;;28.30;16.20;;;;;;;12.43;83.33;91635.19;4993767;28;20479;-87
2021/09/21 09:12:32;;;;;;;36.17;20.52;;;;;;;12.79;82.71;91623.34;4962941;28;20033;-87
2021/09/21 09:14:57;;;;;;;26.80;14.95;;;;;;;12.97;78.72;91625.75;4960708;28;20498;-88
2021/09/21 09:17:23;;;;;;;23.15;14.48;;;;;;;12.76;75.61;91620.59;4978002;28;20061;-87
2021/09/21 09:19:50;;;;;;;25.42;14.70;;;;;;;12.75;76.49;91614.59;4964550;28;20033;-90
2021/09/21 09:22:25;;;;;;;25.30;15.43;;;;;;;12.98;79.14;91611.59;4959413;28;20026;-87
2021/09/21 09:25:02;;;;;;;24.17;14.80;;;;;;;13.26;79.59;91606.53;4961312;28;20026;-86
2021/09/21 09:27:44;;;;;;;26.80;14.18;;;;;;;13.19;75.63;91622.75;4941755;28;20081;-86
2021/09/21 09:30:21;;;;;;;24.92;14.07;;;;;;;13.07;77.17;91626.13;4942379;28;20030;-87
2021/09/21 09:32:51;;;;;;;26.98;15.27;;;;;;;12.82;76.61;91624.53;4941094;28;20054;-86
2021/09/21 09:35:27;;;;;;;22.10;13.30;;;;;;;12.99;76.06;91628.81;4942308;28;20025;-86
2021/09/21 09:37:52;;;;;;;26.48;14.30;;;;;;;12.71;75.47;91629.41;4924980;28;20074;-87
2021/09/21 09:40:18;;;;;;;23.63;14.13;;;;;;;12.60;77.02;91639.50;4940872;28;20022;-86
2021/09/21 09:42:44;;;;;;;24.13;13.98;;;;;;;12.36;77.76;91648.00;4956926;28;20033;-87
2021/09/21 09:45:10;;;;;;;23.75;13.02;;;;;;;12.57;77.49;91648.00;4925388;28;20034;-86
2021/09/21 09:47:46;;;;;;;21.88;13.02;;;;;;;12.59;76.94;91650.28;4941029;28;20022;-88
2021/09/21 09:50:12;;;;;;;27.77;14.18;;;;;;;12.29;76.77;91639.94;4941190;28;20038;-86
2021/09/21 09:52:38;;;;;;;21.92;13.20;;;;;;;12.05;77.73;91640.59;4941709;28;20023;-86
2021/09/21 09:55:03;;;;;;;23.33;14.30;;;;;;;12.25;78.90;91633.81;4941455;28;20059;-87
2021/09/21 09:57:30;;;;;;;24.73;14.38;;;;;;;12.18;77.87;91649.25;4946032;28;20078;-87
2021/09/21 09:59:55;;;;;;;22.90;13.00;;;;;;;12.19;77.52;91648.16;4950874;28;20031;-86
2021/09/21 10:02:21;;;;;;;23.40;13.73;;;;;;;12.36;78.13;91649.88;4940755;28;20038;-87
2021/09/21 10:04:47;;;;;;;24.85;14.23;;;;;;;12.38;79.54;91653.69;4952972;28;20026;-86
2021/09/21 10:07:12;;;;;;;27.30;15.05;;;;;;;12.41;77.43;91647.84;4976801;28;20022;-86
2021/09/21 10:09:37;;;;;;;26.27;14.90;;;;;;;12.25;78.44;91648.72;4944779;28;20033;-87
2021/09/21 10:12:03;;;;;;;27.38;15.27;;;;;;;12.08;77.51;91657.47;4945396;28;20026;-87
2021/09/21 10:14:29;;;;;;;28.35;16.15;;;;;;;12.08;78.66;91655.59;4961691;28;20159;-86
2021/09/21 10:16:59;;;;;;;30.23;15.85;;;;;;;12.14;76.70;91656.19;4945454;28;20019;-86
2021/09/21 10:19:25;;;;;;;30.85;15.73;;;;;;;12.26;77.76;91650.25;4980661;28;20056;-87
2021/09/21 10:21:50;;;;;;;27.60;15.35;;;;;;;12.17;76.18;91658.94;4964663;28;20034;-87
2021/09/21 10:24:16;;;;;;;27.98;16.05;;;;;;;12.52;76.45;91668.34;4949030;28;20026;-86
2021/09/21 10:26:43;;;;;;;25.83;14.65;;;;;;;12.55;75.02;91657.25;4964932;28;20003;-88
2021/09/21 10:29:09;;;;;;;23.13;13.20;;;;;;;12.60;73.94;91659.66;4964878;28;20010;-88
2021/09/21 10:31:36;;;;;;;29.38;14.80;;;;;;;12.86;75.17;91668.03;4968813;28;20085;-86
2021/09/21 10:34:15;;;;;;;26.02;14.35;;;;;;;13.23;73.98;91662.88;4961053;28;20105;-86
2021/09/21 10:36:48;;;;;;;22.63;12.48;;;;;;;13.54;75.43;91653.75;4960524;28;20050;-86
2021/09/21 10:39:15;;;;;;;23.65;12.82;;;;;;;13.74;72.72;91652.09;4960944;28;20050;-87
2021/09/21 10:41:51;;;;;;;20.42;11.65;;;;;;;13.58;74.00;91641.53;4929311;28;20098;-86
2021/09/21 10:44:16;;;;;;;20.48;11.88;;;;;;;13.82;71.77;91640.75;4944918;28;20026;-87
2021/09/21 10:46:49;;;;;;;19.75;11.55;;;;;;;14.03;74.35;91649.25;4944627;28;20030;-87
2021/09/21 10:49:31;;;;;;;16.27;10.70;;;;;;;14.29;75.03;91655.94;4944178;28;20467;-86
2021/09/21 10:51:58;;;;;;;20.48;12.00;;;;;;;14.32;68.58;91656.06;4943924;28;20019;-88
2021/09/21 10:54:34;;;;;;;16.50;10.73;;;;;;;14.05;66.81;91651.53;4944816;28;20031;-87
2021/09/21 10:57:07;;;;;;;17.65;10.10;;;;;;;14.06;64.87;91650.41;4945222;28;20023;-88
2021/09/21 10:59:33;;;;;;;16.60;8.48;;;;;;;14.35;69.83;91655.38;4948023;28;20029;-87
2021/09/21 11:01:58;;;;;;;19.73;8.02;;;;;;;14.46;65.51;91649.69;4979457;28;20475;-87
2021/09/21 11:04:26;;;;;;;17.25;9.90;;;;;;;14.11;66.10;91650.22;4943654;28;20463;-86
2021/09/21 11:06:51;;;;;;;16.95;9.30;;;;;;;14.60;69.21;91649.34;4945343;28;20082;-86
2021/09/21 11:09:25;;;;;;;15.68;8.95;;;;;;;14.99;67.53;91645.84;4944710;28;20475;-87
2021/09/21 11:11:55;;;;;;;13.45;8.50;;;;;;;14.80;63.61;91648.34;4972479;28;20026;-87
2021/09/21 11:14:21;;;;;;;11.68;7.85;;;;;;;14.89;61.80;91650.84;4963568;28;20026;-87
2021/09/21 11:16:52;;;;;;;13.60;8.60;;;;;;;14.78;61.80;91645.31;4947446;28;20030;-87
2021/09/21 11:19:18;;;;;;;12.55;8.15;;;;;;;14.62;61.36;91632.13;4963325;28;20034;-87
2021/09/21 11:21:44;;;;;;;12.70;8.43;;;;;;;14.70;61.18;91628.63;4962975;28;20505;-87
2021/09/21 11:24:09;;;;;;;12.98;7.68;;;;;;;14.67;61.65;91629.28;4956281;28;20019;-87
2021/09/21 11:26:35;;;;;;;12.98;7.25;;;;;;;15.00;63.58;91631.63;4959970;28;20073;-86
2021/09/21 11:29:00;;;;;;;9.63;6.78;;;;;;;14.74;62.06;91629.47;4959303;28;20125;-87
2021/09/21 11:31:26;;;;;;;13.93;8.07;;;;;;;14.87;63.18;91634.66;4967988;28;20081;-87
2021/09/21 11:33:54;;;;;;;15.98;9.27;;;;;;;14.77;63.33;91639.31;4962850;28;20022;-87